Terminal Aerodrome Forecast
Issued by NWS

Home | Current Version | Previous Version | Text Only | Print | Product List | Glossary On
Versions: 1 2 3 4 5 6 7 8 9 10 11 12
020
FTUS44 KSJT 210520
TAFBBD
TAF
KBBD 210520Z 2106/2206 17008KT P6SM BKN040
     FM211100 16008KT P6SM BKN015
     FM212100 19011G17KT P6SM BKN040
     FM220300 22010KT P6SM SCT250 PROB30 2203/2206 P6SM TS BKN050CB
      AMD NOT SKED=

USA.gov is the U.S. government's official web portal to all federal, state and local government web resources and services.